createdAt,value
2023-04-16T00:01:58.000Z,417.50
2023-04-16T00:11:58.000Z,460.90
2023-04-16T00:21:58.000Z,505.10
2023-04-16T00:31:58.000Z,223.70
2023-04-16T00:41:58.000Z,89.70
2023-04-16T00:51:58.000Z,488.90
2023-04-16T01:11:58.000Z,112.20
2023-04-16T01:21:58.000Z,100.90
2023-04-16T01:31:58.000Z,89.00
2023-04-16T01:41:58.000Z,105.90
2023-04-16T01:51:58.000Z,89.50
2023-04-16T02:01:58.000Z,95.70
2023-04-16T02:11:58.000Z,112.90
2023-04-16T02:21:58.000Z,145.50
2023-04-16T02:41:58.000Z,175.90
2023-04-16T02:51:58.000Z,165.80
2023-04-16T03:01:58.000Z,136.10
2023-04-16T03:11:58.000Z,129.90
2023-04-16T03:21:58.000Z,121.30
2023-04-16T03:31:59.000Z,123.50
2023-04-16T03:41:59.000Z,118.00
2023-04-16T03:51:59.000Z,69.80
2023-04-16T04:11:59.000Z,63.50
2023-04-16T04:37:17.000Z,63.80
2023-04-16T04:37:17.000Z,47.30
2023-04-16T05:23:10.000Z,33.20
2023-04-16T05:48:45.000Z,27.60
2023-04-16T06:04:03.000Z,27.80
2023-04-16T06:50:48.000Z,44.40
2023-04-16T06:50:48.000Z,36.00
2023-04-16T07:00:47.000Z,28.50
2023-04-16T07:10:47.000Z,50.90
2023-04-16T07:20:47.000Z,61.70
2023-04-16T07:30:47.000Z,78.30
2023-04-16T07:40:47.000Z,65.60
2023-04-16T07:50:47.000Z,65.10
2023-04-16T08:00:47.000Z,60.30
2023-04-16T08:20:47.000Z,76.50
2023-04-16T08:30:47.000Z,68.80
2023-04-16T08:40:46.000Z,55.20
2023-04-16T08:50:46.000Z,56.50
2023-04-16T09:00:46.000Z,49.70
2023-04-16T09:10:46.000Z,53.90
2023-04-16T09:20:46.000Z,37.80
2023-04-16T09:30:46.000Z,34.80
2023-04-16T09:50:45.000Z,31.20
2023-04-16T10:00:45.000Z,34.80
2023-04-16T10:10:45.000Z,29.60
2023-04-16T10:20:45.000Z,25.70
2023-04-16T10:30:45.000Z,17.40
2023-04-16T10:40:45.000Z,13.80
2023-04-16T10:50:45.000Z,12.40
2023-04-16T11:00:44.000Z,20.20
2023-04-16T11:20:44.000Z,13.90
2023-04-16T11:30:44.000Z,12.70
2023-04-16T11:40:44.000Z,12.30
2023-04-16T12:11:01.000Z,17.40
2023-04-16T12:11:01.000Z,22.30
2023-04-16T12:21:01.000Z,23.70
2023-04-16T12:31:00.000Z,19.80
2023-04-16T12:41:00.000Z,26.90
2023-04-16T12:51:00.000Z,21.70
2023-04-16T13:01:00.000Z,19.70
2023-04-16T13:11:00.000Z,33.10
2023-04-16T13:21:00.000Z,37.50
2023-04-16T13:41:00.000Z,38.50
2023-04-16T13:51:00.000Z,36.70
2023-04-16T14:01:00.000Z,38.40
2023-04-16T14:11:00.000Z,36.80
2023-04-16T14:21:00.000Z,37.60
2023-04-16T14:31:00.000Z,29.00
2023-04-16T14:41:00.000Z,28.10
2023-04-16T14:50:59.000Z,30.50
2023-04-16T15:10:59.000Z,30.20
2023-04-16T15:20:59.000Z,28.90
2023-04-16T15:30:59.000Z,25.70
2023-04-16T15:56:16.000Z,32.00
2023-04-16T15:56:16.000Z,21.20
2023-04-16T16:06:17.000Z,26.30
2023-04-16T16:16:17.000Z,27.10
2023-04-16T16:26:17.000Z,19.00
2023-04-16T16:36:17.000Z,24.60
2023-04-16T16:46:17.000Z,37.20
2023-04-16T16:56:18.000Z,28.00
2023-04-16T17:06:18.000Z,40.40
2023-04-16T17:26:18.000Z,47.50
2023-04-16T17:36:18.000Z,55.00
2023-04-16T17:46:19.000Z,53.00
2023-04-16T17:56:19.000Z,58.90
2023-04-16T18:06:19.000Z,60.00
2023-04-16T18:16:19.000Z,65.30
2023-04-16T18:26:20.000Z,66.40
2023-04-16T18:36:20.000Z,102.00
2023-04-16T18:56:20.000Z,101.50
2023-04-16T19:06:21.000Z,106.30
2023-04-16T19:16:21.000Z,106.60
2023-04-16T19:26:21.000Z,93.40
2023-04-16T19:36:22.000Z,84.80
2023-04-16T19:46:22.000Z,64.40
2023-04-16T19:56:22.000Z,72.70
2023-04-16T20:06:22.000Z,63.00
2023-04-16T20:26:23.000Z,71.70
2023-04-16T20:36:23.000Z,70.70
2023-04-16T20:46:24.000Z,88.60
2023-04-16T20:56:24.000Z,71.40
2023-04-16T21:06:24.000Z,67.80
2023-04-16T21:16:25.000Z,83.50
2023-04-16T21:26:25.000Z,65.50
2023-04-16T21:36:25.000Z,46.50
2023-04-16T21:56:26.000Z,42.70
2023-04-16T22:06:26.000Z,33.40
2023-04-16T22:16:26.000Z,30.40
2023-04-16T22:26:27.000Z,25.50
2023-04-16T22:36:27.000Z,26.50
2023-04-16T22:46:28.000Z,32.60
2023-04-16T22:56:28.000Z,44.50
2023-04-16T23:06:28.000Z,51.40
2023-04-16T23:26:29.000Z,47.00
2023-04-16T23:36:29.000Z,63.00
2023-04-16T23:46:30.000Z,70.20
2023-04-16T23:56:30.000Z,62.60
